createdAt,value
2023-04-13T00:02:13.486Z,31.20
2023-04-13T00:04:50.888Z,30.80
2023-04-13T00:07:28.477Z,31.10
2023-04-13T00:10:04.001Z,29.20
2023-04-13T00:12:43.092Z,30.50
2023-04-13T00:15:17.751Z,32.90
2023-04-13T00:17:51.488Z,31.60
2023-04-13T00:20:27.090Z,31.90
2023-04-13T00:22:59.224Z,31.20
2023-04-13T00:25:31.145Z,32.80
2023-04-13T00:28:07.584Z,33.40
2023-04-13T00:30:41.837Z,32.40
2023-04-13T00:33:17.318Z,30.90
2023-04-13T00:35:51.792Z,31.40
2023-04-13T00:38:28.416Z,32.20
2023-04-13T00:41:13.822Z,31.80
2023-04-13T00:43:46.855Z,31.10
2023-04-13T00:46:29.742Z,32.80
2023-04-13T00:49:03.355Z,32.10
2023-04-13T00:51:39.440Z,30.00
2023-04-13T00:54:14.349Z,33.30
2023-04-13T00:56:49.594Z,31.80
2023-04-13T00:59:28.024Z,32.40
2023-04-13T01:02:04.585Z,32.50
2023-04-13T01:04:39.536Z,32.40
2023-04-13T01:07:23.147Z,32.70
2023-04-13T01:10:05.217Z,32.20
2023-04-13T01:12:49.498Z,29.80
2023-04-13T01:15:36.413Z,30.60
2023-04-13T01:18:13.447Z,31.70
2023-04-13T01:20:53.574Z,32.60
2023-04-13T01:23:38.413Z,31.70
2023-04-13T01:26:13.842Z,31.90
2023-04-13T01:28:50.111Z,31.20
2023-04-13T01:31:24.637Z,33.10
2023-04-13T01:34:02.528Z,33.30
2023-04-13T01:36:36.569Z,32.90
2023-04-13T01:39:12.242Z,33.50
2023-04-13T01:41:46.375Z,34.90
2023-04-13T01:44:23.444Z,36.30
2023-04-13T01:47:14.504Z,35.70
2023-04-13T01:50:30.645Z,34.80
2023-04-13T01:53:17.106Z,33.60
2023-04-13T01:55:53.255Z,34.50
2023-04-13T01:58:33.756Z,35.20
2023-04-13T02:01:16.692Z,35.10
2023-04-13T02:03:49.862Z,36.00
2023-04-13T02:06:25.761Z,33.50
2023-04-13T02:09:11.590Z,35.70
2023-04-13T02:11:47.049Z,34.40
2023-04-13T02:14:21.299Z,33.80
2023-04-13T02:16:59.631Z,35.30
2023-04-13T02:19:32.761Z,34.70
2023-04-13T02:22:09.389Z,34.00
2023-04-13T02:24:46.189Z,32.10
2023-04-13T02:27:17.753Z,31.40
2023-04-13T02:29:51.907Z,34.40
2023-04-13T02:32:31.426Z,33.40
2023-04-13T02:35:12.000Z,34.90
2023-04-13T02:37:51.551Z,33.40
2023-04-13T02:40:28.154Z,32.60
2023-04-13T02:43:02.626Z,33.20
2023-04-13T02:45:46.260Z,33.20
2023-04-13T02:48:23.237Z,36.10
2023-04-13T02:51:04.318Z,34.50
2023-04-13T02:53:40.647Z,33.50
2023-04-13T02:56:16.925Z,38.80
2023-04-13T02:58:54.560Z,34.50
2023-04-13T03:01:31.960Z,34.30
2023-04-13T03:04:07.628Z,33.90
2023-04-13T03:06:44.290Z,34.40
2023-04-13T03:09:20.310Z,32.50
2023-04-13T03:11:56.945Z,34.30
2023-04-13T03:14:34.457Z,33.10
2023-04-13T03:17:19.216Z,34.50
2023-04-13T03:19:52.251Z,37.40
2023-04-13T03:22:30.637Z,38.40
2023-04-13T03:25:15.567Z,37.00
2023-04-13T03:27:50.128Z,35.80
2023-04-13T03:30:27.842Z,38.30
2023-04-13T03:33:02.038Z,34.90
2023-04-13T03:35:45.348Z,34.40
2023-04-13T03:38:24.253Z,34.80
2023-04-13T03:41:04.562Z,33.40
2023-04-13T03:43:41.165Z,34.60
2023-04-13T03:46:19.234Z,35.70
2023-04-13T03:48:55.300Z,34.20
2023-04-13T03:51:34.558Z,36.30
2023-04-13T03:54:07.504Z,36.00
2023-04-13T03:56:42.999Z,35.30
2023-04-13T03:59:16.170Z,34.70
2023-04-13T04:01:52.748Z,35.20
2023-04-13T04:04:25.743Z,36.80
2023-04-13T04:07:00.637Z,36.00
2023-04-13T04:09:33.875Z,35.50
2023-04-13T04:12:14.709Z,36.10
2023-04-13T04:14:50.613Z,36.10
2023-04-13T04:17:26.061Z,34.90
2023-04-13T04:20:01.761Z,38.50
2023-04-13T04:22:39.246Z,35.00
2023-04-13T04:25:23.836Z,35.00
2023-04-13T04:28:17.443Z,36.10
2023-04-13T04:31:11.607Z,35.50
2023-04-13T04:33:53.131Z,37.60
2023-04-13T04:36:28.993Z,56.50
2023-04-13T04:39:09.438Z,95.20
2023-04-13T04:41:54.794Z,87.10
2023-04-13T04:44:30.878Z,94.50
2023-04-13T04:47:07.764Z,120.90
2023-04-13T04:49:47.653Z,134.80
2023-04-13T04:52:21.408Z,66.30
2023-04-13T04:55:00.223Z,80.90
2023-04-13T04:57:39.565Z,108.10
2023-04-13T05:00:21.823Z,68.40
2023-04-13T05:03:07.605Z,45.50
2023-04-13T05:05:40.849Z,42.30
2023-04-13T05:08:24.469Z,43.10
2023-04-13T05:11:00.900Z,41.30
2023-04-13T05:13:43.545Z,41.10
2023-04-13T05:16:25.069Z,41.10
2023-04-13T05:18:59.820Z,40.70
2023-04-13T05:21:52.034Z,39.90
2023-04-13T05:24:35.507Z,35.70
2023-04-13T05:27:11.272Z,38.70
2023-04-13T05:29:42.682Z,40.00
2023-04-13T05:32:16.222Z,37.60
2023-04-13T05:35:01.963Z,37.40
2023-04-13T05:37:40.856Z,39.20
2023-04-13T05:40:19.640Z,38.30
2023-04-13T05:42:57.195Z,37.70
2023-04-13T05:45:34.718Z,37.60
2023-04-13T05:48:16.960Z,37.20
2023-04-13T05:50:49.506Z,39.60
2023-04-13T05:53:26.513Z,39.80
2023-04-13T05:56:00.196Z,39.20
2023-04-13T05:58:43.247Z,57.70
2023-04-13T06:01:33.361Z,47.20
2023-04-13T06:04:14.735Z,45.80
2023-04-13T06:06:50.392Z,42.60
2023-04-13T06:09:24.305Z,37.70
2023-04-13T06:11:58.819Z,37.50
2023-04-13T06:14:31.957Z,36.00
2023-04-13T06:17:07.534Z,34.80
2023-04-13T06:19:41.570Z,35.90
2023-04-13T06:22:18.628Z,34.70
2023-04-13T06:24:53.225Z,33.00
2023-04-13T06:27:27.280Z,33.40
2023-04-13T06:30:12.689Z,103.20
2023-04-13T06:32:53.443Z,68.50
2023-04-13T06:35:32.357Z,123.30
2023-04-13T06:38:11.211Z,62.30
2023-04-13T06:40:54.502Z,84.70
2023-04-13T06:43:35.383Z,47.90
2023-04-13T06:46:38.728Z,74.60
2023-04-13T06:49:14.380Z,66.60
2023-04-13T06:51:47.581Z,73.40
2023-04-13T06:54:21.670Z,63.30
2023-04-13T06:56:57.842Z,62.60
2023-04-13T06:59:33.311Z,49.60
2023-04-13T07:02:05.665Z,59.80
2023-04-13T07:04:38.453Z,53.50
2023-04-13T07:07:26.516Z,27.60
2023-04-13T07:10:01.696Z,63.90
2023-04-13T07:12:38.724Z,30.40
2023-04-13T07:15:15.042Z,35.20
2023-04-13T07:17:56.558Z,35.00
2023-04-13T07:20:27.005Z,53.10
2023-04-13T07:23:00.033Z,39.10
2023-04-13T07:25:36.786Z,76.90
2023-04-13T07:28:15.207Z,32.40
2023-04-13T07:30:49.892Z,77.60
2023-04-13T07:33:22.274Z,40.10
2023-04-13T07:35:55.724Z,39.20
2023-04-13T07:38:32.391Z,55.70
2023-04-13T07:41:05.825Z,39.00
2023-04-13T07:43:40.911Z,39.10
2023-04-13T07:46:18.850Z,35.50
2023-04-13T07:48:54.339Z,28.10
2023-04-13T07:51:29.913Z,25.00
2023-04-13T07:54:04.534Z,22.90
2023-04-13T07:56:40.543Z,29.80
2023-04-13T07:59:14.090Z,19.00
2023-04-13T08:02:08.700Z,16.00
2023-04-13T08:04:44.380Z,19.60
2023-04-13T08:07:21.600Z,16.60
2023-04-13T08:09:55.926Z,17.40
2023-04-13T08:12:30.771Z,15.20
2023-04-13T08:15:11.831Z,18.90
2023-04-13T08:17:43.822Z,18.30
2023-04-13T08:20:16.835Z,18.20
2023-04-13T08:22:52.215Z,16.60
2023-04-13T08:25:31.275Z,14.20
2023-04-13T08:28:07.823Z,14.60
2023-04-13T08:30:42.790Z,15.80
2023-04-13T08:33:15.686Z,15.10
2023-04-13T08:35:46.883Z,15.10
2023-04-13T08:38:24.455Z,21.50
2023-04-13T08:40:56.038Z,19.60
2023-04-13T08:43:32.775Z,16.80
2023-04-13T08:46:07.760Z,14.40
2023-04-13T08:48:59.110Z,13.80
2023-04-13T08:51:42.848Z,12.20
2023-04-13T08:54:17.815Z,13.90
2023-04-13T08:56:54.026Z,15.50
2023-04-13T08:59:31.763Z,15.60
2023-04-13T09:02:10.153Z,52.80
2023-04-13T09:04:53.724Z,48.50
2023-04-13T09:07:36.122Z,19.70
2023-04-13T09:10:19.670Z,27.70
2023-04-13T09:12:52.884Z,16.70
2023-04-13T09:15:28.237Z,16.50
2023-04-13T09:18:12.261Z,17.70
2023-04-13T09:21:00.394Z,16.70
2023-04-13T09:23:34.945Z,13.60
2023-04-13T09:26:12.405Z,13.10
2023-04-13T09:28:59.596Z,14.10
2023-04-13T09:31:35.268Z,13.80
2023-04-13T09:34:08.029Z,13.50
2023-04-13T09:36:54.314Z,11.50
2023-04-13T09:39:30.824Z,12.80
2023-04-13T09:42:18.617Z,12.60
2023-04-13T09:44:58.295Z,10.80
2023-04-13T09:47:48.908Z,13.20
2023-04-13T09:50:23.708Z,11.50
2023-04-13T09:53:07.341Z,11.70
2023-04-13T09:55:45.428Z,11.10
2023-04-13T09:58:21.570Z,12.30
2023-04-13T10:00:57.234Z,11.20
2023-04-13T10:03:31.827Z,16.40
2023-04-13T10:06:07.906Z,23.90
2023-04-13T10:08:45.930Z,12.90
2023-04-13T10:11:23.208Z,11.30
2023-04-13T10:14:08.698Z,9.10
2023-04-13T10:17:22.053Z,11.20
2023-04-13T10:20:00.831Z,11.30
2023-04-13T10:22:45.332Z,11.60
2023-04-13T10:25:32.281Z,12.80
2023-04-13T10:28:06.586Z,8.50
2023-04-13T10:30:52.215Z,10.70
2023-04-13T10:33:30.858Z,10.00
2023-04-13T10:36:04.158Z,11.20
2023-04-13T10:38:46.092Z,10.10
2023-04-13T10:41:26.507Z,7.10
2023-04-13T10:44:07.355Z,7.60
2023-04-13T10:46:41.082Z,8.30
2023-04-13T10:49:13.124Z,10.20
2023-04-13T10:51:47.256Z,9.90
2023-04-13T10:54:18.718Z,10.50
2023-04-13T10:56:59.893Z,8.20
2023-04-13T10:59:58.143Z,6.90
2023-04-13T11:02:35.558Z,6.50
2023-04-13T11:05:10.236Z,6.70
2023-04-13T11:07:55.104Z,9.20
2023-04-13T11:10:29.419Z,10.40
2023-04-13T11:13:01.733Z,7.30
2023-04-13T11:15:36.725Z,7.70
2023-04-13T11:18:13.173Z,5.70
2023-04-13T11:20:55.133Z,6.40
2023-04-13T11:23:28.176Z,6.50
2023-04-13T11:26:00.771Z,6.40
2023-04-13T11:28:42.355Z,6.10
2023-04-13T11:31:15.423Z,6.80
2023-04-13T11:33:53.333Z,7.50
2023-04-13T11:36:29.902Z,5.30
2023-04-13T11:39:06.714Z,5.80
2023-04-13T11:41:42.963Z,4.60
2023-04-13T11:44:15.931Z,6.00
2023-04-13T11:46:46.901Z,6.00
2023-04-13T11:49:20.789Z,6.00
2023-04-13T11:51:51.889Z,5.80
2023-04-13T11:54:25.222Z,4.60
2023-04-13T11:56:57.103Z,6.30
2023-04-13T11:59:31.320Z,5.70
2023-04-13T12:02:19.662Z,6.60
2023-04-13T12:04:58.503Z,6.00
2023-04-13T12:07:33.966Z,8.10
2023-04-13T12:12:51.792Z,5.90
2023-04-13T12:18:15.306Z,6.90
2023-04-13T12:20:49.646Z,6.20
2023-04-13T12:23:29.255Z,6.50
2023-04-13T12:26:31.966Z,9.20
2023-04-13T12:29:05.166Z,7.40
2023-04-13T12:31:39.582Z,6.10
2023-04-13T12:34:13.676Z,8.30
2023-04-13T12:36:46.132Z,5.10
2023-04-13T12:39:20.465Z,10.20
2023-04-13T12:41:52.412Z,7.70
2023-04-13T12:44:31.203Z,6.20
2023-04-13T12:47:07.409Z,7.40
2023-04-13T12:49:40.412Z,8.00
2023-04-13T12:52:12.177Z,5.80
2023-04-13T12:54:45.884Z,5.30
2023-04-13T12:57:22.209Z,7.00
2023-04-13T12:59:54.086Z,5.80
2023-04-13T13:02:32.560Z,6.90
2023-04-13T13:05:05.397Z,5.80
2023-04-13T13:07:38.281Z,5.60
2023-04-13T13:10:29.110Z,5.20
2023-04-13T13:13:03.984Z,5.10
2023-04-13T13:15:46.399Z,5.90
2023-04-13T13:18:21.048Z,6.30
2023-04-13T13:20:56.939Z,5.80
2023-04-13T13:23:47.406Z,6.40
2023-04-13T13:29:11.481Z,8.00
2023-04-13T13:31:43.382Z,6.60
2023-04-13T13:34:18.564Z,6.70
2023-04-13T13:36:52.045Z,5.60
2023-04-13T13:39:25.256Z,6.20
2023-04-13T13:41:59.629Z,7.30
2023-04-13T13:44:35.136Z,8.00
2023-04-13T13:47:09.573Z,6.60
2023-04-13T13:49:44.982Z,7.70
2023-04-13T13:52:33.967Z,5.90
2023-04-13T13:55:12.740Z,6.30
2023-04-13T13:57:51.522Z,6.00
2023-04-13T14:00:24.032Z,24.10
2023-04-13T14:03:04.814Z,7.00
2023-04-13T14:06:04.759Z,8.50
2023-04-13T14:08:45.069Z,6.20
2023-04-13T14:11:18.869Z,7.80
2023-04-13T14:13:53.236Z,6.70
2023-04-13T14:16:26.571Z,6.70
2023-04-13T14:18:59.035Z,8.20
2023-04-13T14:21:33.750Z,9.00
2023-04-13T14:24:07.649Z,12.60
2023-04-13T14:26:42.557Z,6.50
2023-04-13T14:29:14.956Z,7.80
2023-04-13T14:31:47.763Z,4.70
2023-04-13T14:34:18.605Z,7.00
2023-04-13T14:36:54.334Z,9.10
2023-04-13T14:39:27.608Z,11.10
2023-04-13T14:41:59.039Z,7.90
2023-04-13T14:44:29.970Z,5.50
2023-04-13T14:47:09.228Z,5.90
2023-04-13T14:49:44.847Z,9.20
2023-04-13T14:52:16.359Z,7.00
2023-04-13T14:54:48.945Z,6.50
2023-04-13T14:57:23.914Z,7.00
2023-04-13T14:59:58.502Z,7.30
2023-04-13T15:02:32.844Z,5.10
2023-04-13T15:05:12.603Z,7.40
2023-04-13T15:07:51.550Z,6.60
2023-04-13T15:10:28.267Z,8.20
2023-04-13T15:13:06.154Z,5.90
2023-04-13T15:15:39.326Z,5.70
2023-04-13T15:18:21.163Z,5.20
2023-04-13T15:20:55.526Z,6.00
2023-04-13T15:23:27.175Z,5.40
2023-04-13T15:26:01.824Z,5.30
2023-04-13T15:28:38.834Z,6.60
2023-04-13T15:31:09.823Z,7.50
2023-04-13T15:33:43.570Z,6.20
2023-04-13T15:36:19.638Z,5.90
2023-04-13T15:38:53.987Z,6.80
2023-04-13T15:41:27.426Z,8.20
2023-04-13T15:44:03.703Z,12.80
2023-04-13T15:46:36.163Z,10.60
2023-04-13T15:49:11.013Z,11.50
2023-04-13T15:51:43.098Z,11.60
2023-04-13T15:54:16.584Z,23.40
2023-04-13T15:56:49.261Z,13.40
2023-04-13T15:59:21.659Z,91.60
2023-04-13T16:01:53.264Z,63.10
2023-04-13T16:04:27.702Z,35.50
2023-04-13T16:07:13.579Z,17.10
2023-04-13T16:09:49.888Z,17.90
2023-04-13T16:12:21.183Z,11.80
2023-04-13T16:14:56.332Z,12.90
2023-04-13T16:17:32.942Z,14.20
2023-04-13T16:20:20.161Z,15.00
2023-04-13T16:22:59.240Z,14.60
2023-04-13T16:25:32.054Z,16.70
2023-04-13T16:28:12.484Z,16.80
2023-04-13T16:30:46.077Z,18.80
2023-04-13T16:33:18.418Z,17.00
2023-04-13T16:35:53.023Z,16.70
2023-04-13T16:38:24.127Z,21.20
2023-04-13T16:40:57.041Z,19.90
2023-04-13T16:43:30.703Z,18.10
2023-04-13T16:46:02.951Z,18.20
2023-04-13T16:48:37.094Z,16.70
2023-04-13T16:51:08.862Z,18.70
2023-04-13T16:53:44.208Z,18.80
2023-04-13T16:56:17.172Z,18.40
2023-04-13T16:58:50.202Z,14.10
2023-04-13T17:01:26.609Z,16.90
2023-04-13T17:04:01.140Z,18.90
2023-04-13T17:06:35.251Z,15.20
2023-04-13T17:09:06.398Z,20.40
2023-04-13T17:11:45.534Z,17.60
2023-04-13T17:14:25.430Z,17.90
2023-04-13T17:16:58.008Z,19.40
2023-04-13T17:19:29.784Z,16.30
2023-04-13T17:22:02.857Z,17.50
2023-04-13T17:24:37.434Z,15.40
2023-04-13T17:27:10.975Z,21.10
2023-04-13T17:29:55.336Z,20.20
2023-04-13T17:32:27.713Z,16.60
2023-04-13T17:35:02.936Z,16.90
2023-04-13T17:37:54.690Z,18.90
2023-04-13T17:40:27.983Z,17.90
2023-04-13T17:43:01.403Z,17.10
2023-04-13T17:45:38.503Z,16.70
2023-04-13T17:48:17.666Z,18.00
2023-04-13T17:50:51.029Z,16.50
2023-04-13T17:53:24.794Z,16.90
2023-04-13T17:55:57.333Z,19.60
2023-04-13T17:58:28.936Z,16.70
2023-04-13T18:01:08.526Z,20.90
2023-04-13T18:03:39.827Z,21.10
2023-04-13T18:06:14.959Z,19.90
2023-04-13T18:08:49.262Z,20.00
2023-04-13T18:11:21.706Z,18.80
2023-04-13T18:13:54.966Z,22.10
2023-04-13T18:16:32.108Z,19.20
2023-04-13T18:19:06.280Z,20.20
2023-04-13T18:21:41.335Z,16.50
2023-04-13T18:24:17.191Z,16.50
2023-04-13T18:26:54.766Z,17.00
2023-04-13T18:29:31.423Z,16.30
2023-04-13T18:32:03.355Z,18.20
2023-04-13T18:34:36.480Z,18.60
2023-04-13T18:37:14.075Z,19.20
2023-04-13T18:39:47.174Z,20.80
2023-04-13T18:42:28.573Z,19.70
2023-04-13T18:45:01.452Z,21.20
2023-04-13T18:47:35.965Z,19.30
2023-04-13T18:50:11.910Z,21.70
2023-04-13T18:52:45.551Z,20.50
2023-04-13T18:55:19.529Z,19.10
2023-04-13T18:57:55.519Z,19.70
2023-04-13T19:00:26.149Z,21.50
2023-04-13T19:03:01.745Z,19.40
2023-04-13T19:05:37.102Z,20.50
2023-04-13T19:08:13.503Z,22.20
2023-04-13T19:10:47.039Z,25.40
2023-04-13T19:13:18.874Z,22.60
2023-04-13T19:15:52.008Z,23.90
2023-04-13T19:18:22.721Z,24.50
2023-04-13T19:20:57.320Z,21.30
2023-04-13T19:23:31.686Z,23.80
2023-04-13T19:26:04.315Z,23.40
2023-04-13T19:28:35.979Z,22.70
2023-04-13T19:31:12.534Z,23.90
2023-04-13T19:33:48.381Z,22.70
2023-04-13T19:36:25.866Z,24.00
2023-04-13T19:39:05.470Z,21.20
2023-04-13T19:41:41.397Z,23.90
2023-04-13T19:44:22.676Z,24.00
2023-04-13T19:46:57.420Z,22.50
2023-04-13T19:49:35.626Z,23.00
2023-04-13T19:52:16.063Z,24.10
2023-04-13T19:54:49.434Z,22.40
2023-04-13T19:57:25.016Z,26.30
2023-04-13T20:00:00.562Z,25.30
2023-04-13T20:02:46.985Z,22.20
2023-04-13T20:05:24.341Z,23.70
2023-04-13T20:07:56.231Z,25.30
2023-04-13T20:10:31.193Z,23.40
2023-04-13T20:13:07.409Z,23.60
2023-04-13T20:15:40.204Z,23.40
2023-04-13T20:18:12.916Z,21.40
2023-04-13T20:20:48.541Z,23.10
2023-04-13T20:23:22.595Z,24.50
2023-04-13T20:25:57.596Z,23.70
2023-04-13T20:28:28.918Z,25.80
2023-04-13T20:31:01.771Z,21.60
2023-04-13T20:33:38.316Z,25.70
2023-04-13T20:36:10.538Z,25.20
2023-04-13T20:38:44.977Z,24.00
2023-04-13T20:41:15.280Z,23.80
2023-04-13T20:43:50.060Z,21.50
2023-04-13T20:46:25.398Z,22.80
2023-04-13T20:49:00.308Z,25.40
2023-04-13T20:51:40.079Z,24.10
2023-04-13T20:54:13.145Z,29.30
2023-04-13T20:56:46.972Z,24.40
2023-04-13T20:59:23.025Z,26.40
2023-04-13T21:01:54.378Z,28.70
2023-04-13T21:04:35.610Z,25.00
2023-04-13T21:07:11.801Z,27.30
2023-04-13T21:09:45.245Z,25.70
2023-04-13T21:12:22.399Z,27.80
2023-04-13T21:15:05.561Z,29.00
2023-04-13T21:17:39.100Z,34.40
2023-04-13T21:20:27.785Z,35.10
2023-04-13T21:22:57.654Z,33.60
2023-04-13T21:25:30.813Z,33.90
2023-04-13T21:28:02.911Z,35.60
2023-04-13T21:30:35.799Z,33.70
2023-04-13T21:33:09.223Z,32.80
2023-04-13T21:35:42.135Z,31.50
2023-04-13T21:38:18.046Z,33.50
2023-04-13T21:40:53.910Z,33.20
2023-04-13T21:43:27.823Z,30.00
2023-04-13T21:46:03.471Z,31.10
2023-04-13T21:48:41.963Z,30.60
2023-04-13T21:51:14.996Z,30.30
2023-04-13T21:53:47.126Z,33.80
2023-04-13T21:56:22.469Z,30.90
2023-04-13T21:59:00.729Z,32.40
2023-04-13T22:01:31.111Z,33.30
2023-04-13T22:04:11.223Z,29.20
2023-04-13T22:06:48.061Z,32.30
2023-04-13T22:09:22.253Z,33.90
2023-04-13T22:11:53.805Z,32.70
2023-04-13T22:14:29.096Z,32.80
2023-04-13T22:17:04.487Z,31.70
2023-04-13T22:19:37.498Z,31.60
2023-04-13T22:22:14.092Z,31.70
2023-04-13T22:24:47.470Z,30.50
2023-04-13T22:27:22.982Z,31.50
2023-04-13T22:29:57.674Z,28.10
2023-04-13T22:32:31.985Z,29.10
2023-04-13T22:35:05.536Z,29.50
2023-04-13T22:37:47.511Z,32.00
2023-04-13T22:40:22.449Z,27.40
2023-04-13T22:42:54.802Z,29.50
2023-04-13T22:45:29.785Z,28.20
2023-04-13T22:48:08.026Z,27.40
2023-04-13T22:50:42.721Z,26.90
2023-04-13T22:53:16.176Z,26.70
2023-04-13T22:55:56.592Z,31.50
2023-04-13T22:58:31.516Z,28.30
2023-04-13T23:01:06.348Z,28.80
2023-04-13T23:03:41.333Z,29.30
2023-04-13T23:06:12.554Z,28.50
2023-04-13T23:08:48.351Z,28.00
2023-04-13T23:11:20.970Z,25.00
2023-04-13T23:13:57.312Z,27.20
2023-04-13T23:16:30.572Z,28.10
2023-04-13T23:19:03.596Z,23.30
2023-04-13T23:21:36.319Z,24.30
2023-04-13T23:24:12.471Z,24.10
2023-04-13T23:26:45.271Z,26.70
2023-04-13T23:29:21.315Z,26.20
2023-04-13T23:31:55.106Z,29.40
2023-04-13T23:34:28.008Z,30.20
2023-04-13T23:37:00.750Z,29.00
2023-04-13T23:39:33.387Z,29.70
2023-04-13T23:42:06.660Z,30.00
2023-04-13T23:44:44.094Z,31.20
2023-04-13T23:47:17.145Z,28.90
2023-04-13T23:49:54.314Z,30.50
2023-04-13T23:52:31.247Z,28.50
2023-04-13T23:55:05.568Z,31.70
2023-04-13T23:57:38.842Z,27.70
